Map

Track Data

SID SEASON NUMBER BASIN SUBBASIN NAME ISO_TIME NATURE LAT LON WMO_WIND WMO_PRES WMO_AGENCY TRACK_TYPE DIST2LAND LANDFALL IFLAG USA_AGENCY USA_ATCF_ID USA_LAT USA_LON USA_RECORD USA_STATUS USA_WIND USA_PRES USA_SSHS USA_R34_NE USA_R34_SE USA_R34_SW USA_R34_NW USA_R50_NE USA_R50_SE USA_R50_SW USA_R50_NW USA_R64_NE USA_R64_SE USA_R64_SW USA_R64_NW USA_POCI USA_ROCI USA_RMW USA_EYE TOKYO_LAT TOKYO_LON TOKYO_GRADE TOKYO_WIND TOKYO_PRES TOKYO_R50_DIR TOKYO_R50_LONG TOKYO_R50_SHORT TOKYO_R30_DIR TOKYO_R30_LONG TOKYO_R30_SHORT TOKYO_LAND CMA_LAT CMA_LON CMA_CAT CMA_WIND CMA_PRES HKO_LAT HKO_LON HKO_CAT HKO_WIND HKO_PRES NEWDELHI_LAT NEWDELHI_LON NEWDELHI_GRADE NEWDELHI_WIND NEWDELHI_PRES NEWDELHI_CI NEWDELHI_DP NEWDELHI_POCI REUNION_LAT REUNION_LON REUNION_TYPE REUNION_WIND REUNION_PRES REUNION_TNUM REUNION_CI REUNION_RMW REUNION_R34_NE REUNION_R34_SE REUNION_R34_SW REUNION_R34_NW REUNION_R50_NE REUNION_R50_SE REUNION_R50_SW REUNION_R50_NW REUNION_R64_NE REUNION_R64_SE REUNION_R64_SW REUNION_R64_NW BOM_LAT BOM_LON BOM_TYPE BOM_WIND BOM_PRES BOM_TNUM BOM_CI BOM_RMW BOM_R34_NE BOM_R34_SE BOM_R34_SW BOM_R34_NW BOM_R50_NE BOM_R50_SE BOM_R50_SW BOM_R50_NW BOM_R64_NE BOM_R64_SE BOM_R64_SW BOM_R64_NW BOM_ROCI BOM_POCI BOM_EYE BOM_POS_METHOD BOM_PRES_METHOD NADI_LAT NADI_LON NADI_CAT NADI_WIND NADI_PRES WELLINGTON_LAT WELLINGTON_LON WELLINGTON_WIND WELLINGTON_PRES DS824_LAT DS824_LON DS824_STAGE DS824_WIND DS824_PRES TD9636_LAT TD9636_LON TD9636_STAGE TD9636_WIND TD9636_PRES TD9635_LAT TD9635_LON TD9635_WIND TD9635_PRES TD9635_ROCI NEUMANN_LAT NEUMANN_LON NEUMANN_CLASS NEUMANN_WIND NEUMANN_PRES MLC_LAT MLC_LON MLC_CLASS MLC_WIND MLC_PRES USA_GUST BOM_GUST BOM_GUST_PER REUNION_GUST REUNION_GUST_PER USA_SEAHGT USA_SEARAD_NE USA_SEARAD_SE USA_SEARAD_SW USA_SEARAD_NW STORM_SPEED STORM_DIR
1956187N12126 1956 57 WP MM VERA 1956-07-05 00:00:00 TS 12.0000 126.000 1004 tokyo main 58 15 _OO___________ -1 12.0000 126.000 2 1004 0 0 0 12.0000 126.000 2 38 1000 9 284
1956187N12126 1956 57 WP MM VERA 1956-07-05 03:00:00 TS 12.1101 125.560 main 15 0 _PP___________ -1 12.1101 125.560 2 1002 0 0 12.1101 125.560 2 38 999 6 286
1956187N12126 1956 57 WP MM VERA 1956-07-05 06:00:00 TS 12.1667 125.400 1000 tokyo main 0 0 OOO______O_O__ jtwc_wp WP051956 12.1000 126.000 25 -1 12.2000 125.100 2 1000 0 0 0 12.2000 125.100 2 38 998 12.1000 126.000 TC 25 12.1000 126.000 25 1006 120 6 285
1956187N12126 1956 57 WP MM VERA 1956-07-05 09:00:00 TS 12.2706 124.930 main 0 0 PPP______P_P__ WP051956 12.2881 125.360 27 -1 12.2574 124.607 2 1001 0 0 12.2574 124.607 2 38 998 12.2881 125.360 TC 27 12.2881 125.360 26 1005 120 9 285
1956187N12126 1956 57 WP MM VERA 1956-07-05 12:00:00 TS 12.4111 124.489 1002 tokyo main 0 0 OOO______OOO__ jtwc_wp WP051956 12.5000 124.800 30 -1 12.3000 124.100 2 1002 0 0 0 12.3000 124.100 2 38 998 12.5000 124.800 TC 30 12.5000 124.800 1 28 12.5000 124.800 28 1005 120 9 289
1956187N12126 1956 57 WP MM VERA 1956-07-05 15:00:00 TS 12.5714 124.050 main 0 0 PPP______PPP__ WP051956 12.7369 124.345 30 -1 12.3424 123.607 2 1001 0 0 12.3274 123.607 2 38 998 12.7369 124.345 TC 30 12.5242 124.047 1 28 12.7369 124.345 29 1005 120 10 286
1956187N12126 1956 57 WP MM VERA 1956-07-05 18:00:00 TS 12.6828 123.493 1000 tokyo main 24 22 OOO______OPO__ jtwc_wp WP051956 12.9000 123.800 30 -1 12.4000 123.100 2 1000 0 0 0 12.4000 123.100 2 38 998 12.9000 123.800 TC 30 12.5678 123.316 1 29 12.9000 123.800 30 1005 120 13 275
1956187N12126 1956 57 WP MM VERA 1956-07-05 21:00:00 TS 12.6849 122.748 main 55 48 PPP______PPP__ WP051956 12.8356 122.914 30 -1 12.4099 122.557 2 1000 0 0 12.5399 122.565 2 38 998 12.8356 122.914 TC 30 12.6524 122.626 1 29 12.8356 122.914 30 1004 150 15 273
1956187N12126 1956 57 WP MM VERA 1956-07-06 00:00:00 TS 12.7667 122.000 1000 tokyo main 48 0 OOO______OOO__ jtwc_wp WP051956 12.8000 122.000 30 -1 12.6000 122.000 2 1000 0 0 0 12.8000 122.000 2 38 998 12.8000 122.000 TC 30 12.8000 122.000 1 30 12.8000 122.000 30 1004 180 14 287
1956187N12126 1956 57 WP MM VERA 1956-07-06 03:00:00 TS 13.0874 121.415 main 0 0 PPP______PPP__ WP051956 13.0395 121.348 37 0 13.1893 121.525 2 1000 0 0 13.1893 121.474 2 43 997 13.0395 121.348 TC 37 13.0270 121.445 1 35 13.0395 121.348 37 1003 210 14 304
1956187N12126 1956 57 WP MM VERA 1956-07-06 06:00:00 TS 13.5212 120.836 1000 tokyo main 11 11 OOO______OPO__ jtwc_wp WP051956 13.4000 120.800 45 0 13.9000 120.900 2 1000 0 0 0 13.7000 120.800 3 48 996 13.4000 120.800 TC 45 13.3273 120.915 1 40 13.4000 120.800 45 1002 240 15 304
1956187N12126 1956 57 WP MM VERA 1956-07-06 09:00:00 TS 13.9323 120.150 main 53 53 PPP______PPP__ WP051956 13.7270 120.280 47 0 14.4230 119.910 2 999 0 0 14.3006 119.796 3 48 996 13.7270 120.280 TC 47 13.6891 120.354 1 45 13.7270 120.280 47 1001 210 16 301
1956187N12126 1956 57 WP MM VERA 1956-07-06 12:00:00 TS 14.3667 119.383 998 tokyo main 87 87 OOO______OOO__ jtwc_wp WP051956 14.1000 119.700 50 0 14.9000 118.800 2 998 0 0 0 14.9000 118.700 3 48 996 14.1000 119.700 TC 50 14.1000 119.700 2 50 14.1000 119.700 50 1000 180 18 300
1956187N12126 1956 57 WP MM VERA 1956-07-06 15:00:00 TS 14.8147 118.556 main 154 154 PPP______PPP__ WP051956 14.5272 118.975 45 0 15.4148 117.797 2 998 0 0 15.3797 117.747 3 53 994 14.5272 118.975 TC 45 14.5124 118.867 2 47 14.5272 118.975 45 998 150 19 299
1956187N12126 1956 57 WP MM VERA 1956-07-06 18:00:00 TS 15.2781 117.673 998 tokyo main 228 228 OOO______OPO__ jtwc_wp WP051956 15.0000 118.100 40 0 15.9000 116.900 2 998 0 0 0 15.8000 116.900 3 58 992 15.0000 118.100 TC 40 14.9687 117.939 2 45 15.0000 118.100 40 996 120 20 298
1956187N12126 1956 57 WP MM VERA 1956-07-06 21:00:00 TS 15.7239 116.771 main 312 312 PPP______PPP__ WP051956 15.4549 117.094 40 0 16.3141 116.184 2 996 0 0 16.1992 116.192 3 58 990 15.4549 117.094 TC 40 15.4654 116.966 2 42 15.4549 117.094 40 993 120 20 298
1956187N12126 1956 57 WP MM VERA 1956-07-07 00:00:00 TS 16.2167 115.833 995 tokyo main 417 417 OOO______OOO__ jtwc_wp WP051956 16.0000 116.000 40 0 16.7000 115.500 9 995 0 0 0 16.6000 115.500 3 58 988 16.0000 116.000 TC 40 16.0000 116.000 2 40 16.0000 116.000 40 991 120 22 301
1956187N12126 1956 57 WP MM VERA 1956-07-07 03:00:00 TS 16.8455 114.825 main 507 391 PPP______PPP__ WP051956 16.7580 114.841 50 0 17.1375 114.665 9 992 0 0 17.0502 114.650 3 63 984 16.7580 114.841 TC 50 16.6113 115.112 2 50 16.7580 114.841 50 988 150 23 303
1956187N12126 1956 57 WP MM VERA 1956-07-07 06:00:00 TS 17.4584 113.873 990 tokyo main 385 299 OOO______OPO__ jtwc_wp WP051956 17.5000 113.800 60 0 17.5000 113.800 9 990 0 0 0 17.5000 113.800 4 68 980 17.5000 113.800 TC 60 17.2505 114.236 2 60 17.5000 113.800 60 985 180 20 303
1956187N12126 1956 57 WP MM VERA 1956-07-07 09:00:00 TS 17.9192 113.118 main 291 214 PPP______PPP__ WP051956 18.0163 113.089 70 1 17.6870 112.999 9 990 0 0 17.9145 113.077 4 68 977 18.0163 113.089 TC 70 17.8645 113.368 2 70 18.0163 113.089 70 981 180 16 301
1956187N12126 1956 57 WP MM VERA 1956-07-07 12:00:00 TS 18.2833 112.433 990 tokyo main 205 134 OOO______OOO__ jtwc_wp WP051956 18.4000 112.500 80 1 17.8000 112.200 9 990 0 0 0 18.3000 112.400 4 68 975 18.4000 112.500 TC 80 18.4000 112.500 3 80 18.4000 112.500 80 978 180 15 297
1956187N12126 1956 57 WP MM VERA 1956-07-07 15:00:00 TS 18.6061 111.715 main 124 43 PPP______PPP__ WP051956 18.7216 111.859 72 1 17.9568 111.387 9 990 0 0 18.6718 111.737 4 68 975 18.7216 111.859 TC 72 18.8428 111.588 3 70 18.7216 111.859 72 979 210 16 293
1956187N12126 1956 57 WP MM VERA 1956-07-07 18:00:00 TS 18.8825 110.914 990 tokyo main 33 0 OOO______OPO__ jtwc_wp WP051956 19.0000 111.100 65 1 18.1000 110.500 9 990 0 0 0 19.0000 111.000 4 68 975 19.0000 111.100 TC 65 19.1949 110.683 3 60 19.0000 111.100 65 980 240 18 288
1956187N12126 1956 57 WP MM VERA 1956-07-07 21:00:00 TS 19.1740 109.904 main 0 0 PPP______PPP__ WP051956 19.3763 110.029 52 0 18.2001 109.465 9 990 0 0 19.2654 110.065 4 58 978 19.3763 110.029 TC 52 19.4494 109.811 3 50 19.3763 110.029 52 982 240 19 284
1956187N12126 1956 57 WP MM VERA 1956-07-08 00:00:00 TS 19.3667 108.917 990 tokyo main 0 0 OOO______OOO__ jtwc_wp WP051956 19.6000 109.000 40 0 18.3000 108.400 9 990 0 0 0 19.5000 109.100 3 48 982 19.6000 109.000 TC 40 19.6000 109.000 2 40 19.6000 109.000 40 984 240 16 276
1956187N12126 1956 57 WP MM VERA 1956-07-08 03:00:00 TS 19.3564 108.198 main 43 43 PPP______PPP__ WP051956 19.4286 108.404 37 0 18.4488 107.465 9 992 0 0 19.7573 108.240 3 43 986 19.4286 108.404 TC 37 19.6464 108.270 2 36 19.4286 108.404 37 986 210 13 267
1956187N12126 1956 57 WP MM VERA 1956-07-08 06:00:00 TS 19.3016 107.496 994 tokyo main 115 85 OOO______OPO__ jtwc_wp WP051956 19.2000 107.900 35 0 18.6000 106.500 9 994 0 0 0 20.0000 107.500 2 38 990 19.2000 107.900 TC 35 19.6105 107.608 2 32 19.2000 107.900 35 988 180 15 271
1956187N12126 1956 57 WP MM VERA 1956-07-08 09:00:00 TS 19.3713 106.623 main 79 0 PPP______PPP__ WP051956 19.2164 107.216 30 -1 18.7092 105.238 9 994 0 0 20.1917 106.934 2 38 992 19.2164 107.216 TC 30 19.5195 106.992 2 28 19.2164 107.216 30 990 150 17 278
1956187N12126 1956 57 WP MM VERA 1956-07-08 12:00:00 TS 19.5333 105.667 994 tokyo main 0 0 OOO______OOO__ jtwc_wp WP051956 19.4000 106.400 25 -1 18.8000 104.200 9 994 0 0 0 20.4000 106.400 2 38 995 19.4000 106.400 TC 25 19.4000 106.400 1 25 19.4000 106.400 25 992 120 18 284
1956187N12126 1956 57 WP MM VERA 1956-07-08 15:00:00 TS 19.7990 104.820 main 0 0 _PP___________ WP051956 -1 18.9062 103.872 9 995 0 0 20.6918 105.767 2 30 996 TC 1 13 291
1956187N12126 1956 57 WP MM VERA 1956-07-08 18:00:00 TS 20.0000 104.400 996 tokyo main 0 0 _OO___________ -1 19.0000 103.800 9 996 0 0 0 21.0000 105.000 1 23 997 1 10 291
1956187N12126 1956 57 WP MM VERA 1956-07-08 21:00:00 TS 20.1637 103.810 main 0 0 _PP___________ -1 19.0607 103.568 9 999 0 0 21.2667 104.053 1 998 1 13 284
1956187N12126 1956 57 WP MM VERA 1956-07-09 00:00:00 TS 20.3000 103.100 1002 tokyo main 0 _OO___________ -1 19.1000 103.200 2 1002 0 0 0 21.5000 103.000 0 1000 14 282

Digital Typhoon Data and Search

About IBTrACS Database

This database is a web-friendly format of International Best Track Archive for Climate Stewardship (IBTrACS), a global best track data archive curated by NOAA dating back to 1842.

Updated: 2021-11-26